KBVY

Beverly Regional Airport

Beverly, Massachusetts, USA
METAR KBVY 180053Z 28012G18KT 10SM FEW050 09/02 A2986 RMK AO2 SLP108 T00890017
Observed Flight Rules
Oct-18 @ 00:53 UTC (39 minutes ago) Visual Flight Rules
Wind Visibility Clouds
280° at 12 knots
 Gusting to 18 knots
10 miles
  • Few at 5,000' AGL
Temperatures Readings
Current 9°C / 48°F
Dewpoint 2°C / 36°F
Humidity 62%
Altimeter 29.86" Hg
Pressure 1010.8 hPa
Elevation 28
METAR KBVY 180053Z 28012G18KT 10SM FEW050 09/02 A2986 RMK AO2 SLP108 T00890017
Observed Flight Rules
Oct-18 @ 00:53 UTC
(39 minutes ago)
VFR
Wind Visibility
280° at 12 knots
 Gusting to 18 knots
10 miles
Clouds
  • Few at 5,000' AGL
Temperature Dewpoint
9°C / 48°F 2°C / 36°F
Humidity Altimeter Pressure
62% 29.86" Hg 1010.8 hPa